Dora Bend, Louisiana
Current Conditions -  °F | °C
As of 12:55 PM on Sunday 23 Nov 2014 (Local Time) from KOPL Reporting Station
Scattered Clouds Scattered Clouds  
Wind Chill: 71°   Ceiling: Unl
Heat Index: 71°   Visibility: 10mi
Dew Point: 58°   Wind: 21mph
Humidity: 63%   Direction: 230°SW
Pressure: 29.6"   Gusts: 26mph
Location:  30.9908°N, 92.0816°W
Report Text: KOPL 231855Z AUTO 23018G23KT 10SM SCT032 22/14 A2960 RMK AO2 T02160143
Loading
Personal Weather Stations






























Interactive Weather Map New forecast layout! Learn more

10-Day Weather Forecast

Advertisements
Track Severe Weather on mobile